createdAt,value
2022-10-07T00:17:13.951Z,3.00
2022-10-07T00:35:56.102Z,3.50
2022-10-07T00:54:32.528Z,4.70
2022-10-07T01:13:11.637Z,4.40
2022-10-07T02:09:10.204Z,4.30
2022-10-07T02:27:48.565Z,4.80
2022-10-07T02:46:27.689Z,3.80
2022-10-07T03:05:06.920Z,4.90
2022-10-07T03:42:26.437Z,4.70
2022-10-07T04:01:09.160Z,4.90
2022-10-07T04:19:48.795Z,5.10
2022-10-07T04:38:28.569Z,5.30
2022-10-07T04:57:08.094Z,8.40
2022-10-07T05:15:49.894Z,4.30
2022-10-07T05:34:29.411Z,6.90
2022-10-07T05:53:09.834Z,5.30
2022-10-07T06:30:32.800Z,8.00
2022-10-07T06:49:13.590Z,7.10
2022-10-07T07:07:55.752Z,4.40
2022-10-07T07:26:38.082Z,6.10
2022-10-07T07:45:22.229Z,4.20
2022-10-07T08:04:01.110Z,4.80
2022-10-07T08:22:42.784Z,3.20
2022-10-07T08:41:27.424Z,4.60
2022-10-07T09:00:07.878Z,4.00
2022-10-07T09:18:51.842Z,3.70
2022-10-07T09:37:36.888Z,3.20
2022-10-07T09:56:27.683Z,2.90
2022-10-07T10:34:07.315Z,2.10
2022-10-07T11:49:12.764Z,1.10
2022-10-07T12:07:57.903Z,1.60
2022-10-07T12:26:43.850Z,1.00
2022-10-07T12:45:23.325Z,1.20
2022-10-07T13:04:08.255Z,1.40
2022-10-07T13:22:55.732Z,1.50
2022-10-07T13:41:34.537Z,0.80
2022-10-07T14:18:52.161Z,1.20
2022-10-07T14:37:35.153Z,1.50
2022-10-07T14:56:11.455Z,1.30
2022-10-07T15:14:48.199Z,2.20
2022-10-07T15:33:27.077Z,1.90
2022-10-07T15:51:48.972Z,2.30
2022-10-07T16:10:14.453Z,2.40
2022-10-07T16:28:46.153Z,2.00
2022-10-07T16:47:19.804Z,2.30
2022-10-07T17:05:56.146Z,4.20
2022-10-07T17:24:31.457Z,5.60
2022-10-07T17:43:09.577Z,3.40
2022-10-07T18:01:46.754Z,3.70
2022-10-07T18:20:24.203Z,4.00
2022-10-07T18:39:01.762Z,4.70
2022-10-07T18:57:41.150Z,4.30
2022-10-07T19:16:20.231Z,4.30
2022-10-07T19:34:57.108Z,5.30
2022-10-07T20:12:19.602Z,3.10
2022-10-07T20:30:51.705Z,3.90
2022-10-07T20:49:30.837Z,3.40
2022-10-07T21:08:09.403Z,4.20
2022-10-07T21:26:47.846Z,4.70
2022-10-07T21:45:26.998Z,3.90
2022-10-07T22:04:08.425Z,5.90
2022-10-07T22:22:45.422Z,5.10
2022-10-07T22:41:23.880Z,5.10
2022-10-07T23:00:03.248Z,4.20
2022-10-07T23:18:41.631Z,6.90
2022-10-07T23:37:21.272Z,5.90
2022-10-07T23:56:01.712Z,6.10
